sensor_id;sensor_type;location;lat;lon;timestamp;temperature;humidity
70534;SHT31;58088;51.186;17.130;2023-07-31T00:01:57;18.79;75.12
70534;SHT31;58088;51.186;17.130;2023-07-31T00:04:24;18.80;75.20
70534;SHT31;58088;51.186;17.130;2023-07-31T00:06:50;18.81;75.12
70534;SHT31;58088;51.186;17.130;2023-07-31T00:09:16;18.84;75.06
70534;SHT31;58088;51.186;17.130;2023-07-31T00:11:42;18.86;75.02
70534;SHT31;58088;51.186;17.130;2023-07-31T00:14:08;18.86;74.93
70534;SHT31;58088;51.186;17.130;2023-07-31T00:16:35;18.84;74.83
70534;SHT31;58088;51.186;17.130;2023-07-31T00:19:01;18.83;74.88
70534;SHT31;58088;51.186;17.130;2023-07-31T00:21:27;18.81;74.88
70534;SHT31;58088;51.186;17.130;2023-07-31T00:23:53;18.79;74.88
70534;SHT31;58088;51.186;17.130;2023-07-31T00:26:19;18.78;74.88
70534;SHT31;58088;51.186;17.130;2023-07-31T00:28:46;18.76;74.90
70534;SHT31;58088;51.186;17.130;2023-07-31T00:31:14;18.76;74.95
70534;SHT31;58088;51.186;17.130;2023-07-31T00:33:41;18.77;74.82
70534;SHT31;58088;51.186;17.130;2023-07-31T00:36:07;18.78;74.82
70534;SHT31;58088;51.186;17.130;2023-07-31T00:38:33;18.79;74.72
70534;SHT31;58088;51.186;17.130;2023-07-31T00:40:59;18.82;74.67
70534;SHT31;58088;51.186;17.130;2023-07-31T00:43:25;18.86;74.59
70534;SHT31;58088;51.186;17.130;2023-07-31T00:45:52;18.87;74.43
70534;SHT31;58088;51.186;17.130;2023-07-31T00:48:18;18.84;74.38
70534;SHT31;58088;51.186;17.130;2023-07-31T00:50:44;18.80;74.38
70534;SHT31;58088;51.186;17.130;2023-07-31T00:53:14;18.78;74.28
70534;SHT31;58088;51.186;17.130;2023-07-31T00:55:42;18.77;74.29
70534;SHT31;58088;51.186;17.130;2023-07-31T00:58:11;18.76;74.30
70534;SHT31;58088;51.186;17.130;2023-07-31T01:00:38;18.75;74.29
70534;SHT31;58088;51.186;17.130;2023-07-31T01:03:05;18.77;74.29
70534;SHT31;58088;51.186;17.130;2023-07-31T01:11:28;18.71;74.00
70534;SHT31;58088;51.186;17.130;2023-07-31T01:13:59;18.69;74.01
70534;SHT31;58088;51.186;17.130;2023-07-31T01:16:26;18.66;74.07
70534;SHT31;58088;51.186;17.130;2023-07-31T01:18:53;18.64;74.12
70534;SHT31;58088;51.186;17.130;2023-07-31T01:21:26;18.63;74.10
70534;SHT31;58088;51.186;17.130;2023-07-31T01:27:23;18.63;74.08
70534;SHT31;58088;51.186;17.130;2023-07-31T01:29:59;18.62;73.95
70534;SHT31;58088;51.186;17.130;2023-07-31T01:32:40;18.58;73.94
70534;SHT31;58088;51.186;17.130;2023-07-31T01:35:08;18.55;73.89
70534;SHT31;58088;51.186;17.130;2023-07-31T01:37:35;18.50;73.84
70534;SHT31;58088;51.186;17.130;2023-07-31T01:40:02;18.45;73.86
70534;SHT31;58088;51.186;17.130;2023-07-31T01:42:29;18.43;73.82
70534;SHT31;58088;51.186;17.130;2023-07-31T01:44:55;18.41;73.82
70534;SHT31;58088;51.186;17.130;2023-07-31T01:47:22;18.39;73.80
70534;SHT31;58088;51.186;17.130;2023-07-31T01:49:49;18.38;73.78
70534;SHT31;58088;51.186;17.130;2023-07-31T01:52:15;18.37;73.79
70534;SHT31;58088;51.186;17.130;2023-07-31T01:54:41;18.35;73.80
70534;SHT31;58088;51.186;17.130;2023-07-31T01:57:08;18.32;73.71
70534;SHT31;58088;51.186;17.130;2023-07-31T01:59:34;18.30;73.71
70534;SHT31;58088;51.186;17.130;2023-07-31T02:02:11;18.24;73.74
70534;SHT31;58088;51.186;17.130;2023-07-31T02:04:57;18.23;73.86
70534;SHT31;58088;51.186;17.130;2023-07-31T02:07:31;18.23;73.81
70534;SHT31;58088;51.186;17.130;2023-07-31T02:09:57;18.23;73.76
70534;SHT31;58088;51.186;17.130;2023-07-31T02:12:23;18.21;73.77
70534;SHT31;58088;51.186;17.130;2023-07-31T02:14:50;18.21;73.77
70534;SHT31;58088;51.186;17.130;2023-07-31T02:17:17;18.20;73.62
70534;SHT31;58088;51.186;17.130;2023-07-31T02:19:43;18.21;73.62
70534;SHT31;58088;51.186;17.130;2023-07-31T02:22:09;18.22;73.68
70534;SHT31;58088;51.186;17.130;2023-07-31T02:24:35;18.22;73.68
70534;SHT31;58088;51.186;17.130;2023-07-31T02:27:01;18.24;73.71
70534;SHT31;58088;51.186;17.130;2023-07-31T02:29:28;18.25;73.61
70534;SHT31;58088;51.186;17.130;2023-07-31T02:31:54;18.28;73.57
70534;SHT31;58088;51.186;17.130;2023-07-31T02:34:20;18.29;73.48
70534;SHT31;58088;51.186;17.130;2023-07-31T02:36:47;18.27;73.49
70534;SHT31;58088;51.186;17.130;2023-07-31T02:39:13;18.25;73.52
70534;SHT31;58088;51.186;17.130;2023-07-31T02:41:39;18.23;73.52
70534;SHT31;58088;51.186;17.130;2023-07-31T02:44:05;18.22;73.59
70534;SHT31;58088;51.186;17.130;2023-07-31T02:46:31;18.20;73.59
70534;SHT31;58088;51.186;17.130;2023-07-31T02:48:57;18.22;73.72
70534;SHT31;58088;51.186;17.130;2023-07-31T02:51:23;18.21;73.58
70534;SHT31;58088;51.186;17.130;2023-07-31T02:53:49;18.20;73.53
70534;SHT31;58088;51.186;17.130;2023-07-31T02:56:16;18.18;73.57
70534;SHT31;58088;51.186;17.130;2023-07-31T02:58:42;18.14;73.55
70534;SHT31;58088;51.186;17.130;2023-07-31T03:01:08;18.13;73.50
70534;SHT31;58088;51.186;17.130;2023-07-31T03:03:34;18.11;73.49
70534;SHT31;58088;51.186;17.130;2023-07-31T03:06:01;18.09;73.38
70534;SHT31;58088;51.186;17.130;2023-07-31T03:08:27;18.07;73.30
70534;SHT31;58088;51.186;17.130;2023-07-31T03:10:54;18.03;73.31
70534;SHT31;58088;51.186;17.130;2023-07-31T03:13:21;18.03;73.33
70534;SHT31;58088;51.186;17.130;2023-07-31T03:15:48;18.02;73.25
70534;SHT31;58088;51.186;17.130;2023-07-31T03:18:14;18.00;73.24
70534;SHT31;58088;51.186;17.130;2023-07-31T03:20:43;17.98;73.26
70534;SHT31;58088;51.186;17.130;2023-07-31T03:23:10;17.95;73.28
70534;SHT31;58088;51.186;17.130;2023-07-31T03:25:37;17.94;73.18
70534;SHT31;58088;51.186;17.130;2023-07-31T03:28:03;17.91;73.20
70534;SHT31;58088;51.186;17.130;2023-07-31T03:30:30;17.90;73.19
70534;SHT31;58088;51.186;17.130;2023-07-31T03:32:57;17.91;73.15
70534;SHT31;58088;51.186;17.130;2023-07-31T03:35:23;17.91;73.11
70534;SHT31;58088;51.186;17.130;2023-07-31T03:37:49;17.88;73.07
70534;SHT31;58088;51.186;17.130;2023-07-31T03:40:16;17.84;73.14
70534;SHT31;58088;51.186;17.130;2023-07-31T03:42:42;17.82;73.28
70534;SHT31;58088;51.186;17.130;2023-07-31T03:45:09;17.81;73.37
70534;SHT31;58088;51.186;17.130;2023-07-31T03:47:36;17.79;73.34
70534;SHT31;58088;51.186;17.130;2023-07-31T03:50:03;17.78;73.38
70534;SHT31;58088;51.186;17.130;2023-07-31T03:52:29;17.81;73.29
70534;SHT31;58088;51.186;17.130;2023-07-31T03:54:56;17.85;73.23
70534;SHT31;58088;51.186;17.130;2023-07-31T03:57:22;17.89;73.16
70534;SHT31;58088;51.186;17.130;2023-07-31T03:59:49;17.88;72.96
70534;SHT31;58088;51.186;17.130;2023-07-31T04:02:15;17.89;72.84
70534;SHT31;58088;51.186;17.130;2023-07-31T04:04:44;17.89;72.68
70534;SHT31;58088;51.186;17.130;2023-07-31T04:07:11;17.89;72.50
70534;SHT31;58088;51.186;17.130;2023-07-31T04:09:37;17.91;72.54
70534;SHT31;58088;51.186;17.130;2023-07-31T04:12:04;17.90;72.46
70534;SHT31;58088;51.186;17.130;2023-07-31T04:14:31;17.91;72.41
70534;SHT31;58088;51.186;17.130;2023-07-31T04:16:57;17.91;72.44
70534;SHT31;58088;51.186;17.130;2023-07-31T04:19:24;17.93;72.65
70534;SHT31;58088;51.186;17.130;2023-07-31T04:21:50;17.95;72.75
70534;SHT31;58088;51.186;17.130;2023-07-31T04:24:17;17.97;72.91
70534;SHT31;58088;51.186;17.130;2023-07-31T04:26:52;17.99;72.91
70534;SHT31;58088;51.186;17.130;2023-07-31T04:29:22;18.01;72.89
70534;SHT31;58088;51.186;17.130;2023-07-31T04:31:49;18.02;72.77
70534;SHT31;58088;51.186;17.130;2023-07-31T04:34:16;18.05;72.59
70534;SHT31;58088;51.186;17.130;2023-07-31T04:36:42;18.09;72.53
70534;SHT31;58088;51.186;17.130;2023-07-31T04:39:08;18.15;72.46
70534;SHT31;58088;51.186;17.130;2023-07-31T04:41:34;18.21;72.10
70534;SHT31;58088;51.186;17.130;2023-07-31T04:44:01;18.29;72.15
70534;SHT31;58088;51.186;17.130;2023-07-31T04:46:29;18.39;72.16
70534;SHT31;58088;51.186;17.130;2023-07-31T04:48:56;18.50;72.05
70534;SHT31;58088;51.186;17.130;2023-07-31T04:51:22;18.67;71.75
70534;SHT31;58088;51.186;17.130;2023-07-31T04:53:49;18.86;71.10
70534;SHT31;58088;51.186;17.130;2023-07-31T04:56:15;19.00;70.63
70534;SHT31;58088;51.186;17.130;2023-07-31T04:58:42;19.09;70.35
70534;SHT31;58088;51.186;17.130;2023-07-31T05:01:08;19.23;70.36
70534;SHT31;58088;51.186;17.130;2023-07-31T05:03:34;19.33;70.23
70534;SHT31;58088;51.186;17.130;2023-07-31T05:06:00;19.48;70.12
70534;SHT31;58088;51.186;17.130;2023-07-31T05:08:33;19.67;69.89
70534;SHT31;58088;51.186;17.130;2023-07-31T05:11:00;19.80;69.40
70534;SHT31;58088;51.186;17.130;2023-07-31T05:13:27;19.90;69.16
70534;SHT31;58088;51.186;17.130;2023-07-31T05:15:53;19.95;68.59
70534;SHT31;58088;51.186;17.130;2023-07-31T05:18:19;20.00;68.26
70534;SHT31;58088;51.186;17.130;2023-07-31T05:20:45;20.06;68.36
70534;SHT31;58088;51.186;17.130;2023-07-31T05:23:12;20.14;68.31
70534;SHT31;58088;51.186;17.130;2023-07-31T05:25:38;20.19;67.98
70534;SHT31;58088;51.186;17.130;2023-07-31T05:28:05;20.24;68.01
70534;SHT31;58088;51.186;17.130;2023-07-31T05:30:31;20.32;67.72
70534;SHT31;58088;51.186;17.130;2023-07-31T05:32:57;20.38;67.29
70534;SHT31;58088;51.186;17.130;2023-07-31T05:35:24;20.46;66.97
70534;SHT31;58088;51.186;17.130;2023-07-31T05:37:50;20.56;66.88
70534;SHT31;58088;51.186;17.130;2023-07-31T05:40:16;20.62;66.35
70534;SHT31;58088;51.186;17.130;2023-07-31T05:42:43;20.71;66.05
70534;SHT31;58088;51.186;17.130;2023-07-31T05:45:09;20.77;65.84
70534;SHT31;58088;51.186;17.130;2023-07-31T05:47:35;20.84;65.86
70534;SHT31;58088;51.186;17.130;2023-07-31T05:50:02;20.89;65.45
70534;SHT31;58088;51.186;17.130;2023-07-31T05:52:28;20.94;65.18
70534;SHT31;58088;51.186;17.130;2023-07-31T05:54:54;20.98;65.06
70534;SHT31;58088;51.186;17.130;2023-07-31T05:57:21;21.05;65.22
70534;SHT31;58088;51.186;17.130;2023-07-31T05:59:47;21.11;64.61
70534;SHT31;58088;51.186;17.130;2023-07-31T06:02:14;21.21;64.11
70534;SHT31;58088;51.186;17.130;2023-07-31T06:04:45;21.32;64.06
70534;SHT31;58088;51.186;17.130;2023-07-31T06:07:12;21.38;63.72
70534;SHT31;58088;51.186;17.130;2023-07-31T06:09:39;21.42;63.37
70534;SHT31;58088;51.186;17.130;2023-07-31T06:12:05;21.45;63.18
70534;SHT31;58088;51.186;17.130;2023-07-31T06:14:34;21.51;63.45
70534;SHT31;58088;51.186;17.130;2023-07-31T06:17:06;21.58;63.50
70534;SHT31;58088;51.186;17.130;2023-07-31T06:19:33;21.62;63.07
70534;SHT31;58088;51.186;17.130;2023-07-31T06:22:00;21.65;62.68
70534;SHT31;58088;51.186;17.130;2023-07-31T06:24:28;21.70;62.53
70534;SHT31;58088;51.186;17.130;2023-07-31T06:26:57;21.75;62.23
70534;SHT31;58088;51.186;17.130;2023-07-31T06:29:23;21.78;61.94
70534;SHT31;58088;51.186;17.130;2023-07-31T06:31:51;21.83;61.67
70534;SHT31;58088;51.186;17.130;2023-07-31T06:34:17;21.87;61.85
70534;SHT31;58088;51.186;17.130;2023-07-31T06:36:44;21.87;61.50
70534;SHT31;58088;51.186;17.130;2023-07-31T06:39:11;21.88;61.13
70534;SHT31;58088;51.186;17.130;2023-07-31T06:41:38;21.93;61.15
70534;SHT31;58088;51.186;17.130;2023-07-31T06:44:08;22.00;60.99
70534;SHT31;58088;51.186;17.130;2023-07-31T06:46:39;22.08;61.04
70534;SHT31;58088;51.186;17.130;2023-07-31T06:49:06;22.17;60.63
70534;SHT31;58088;51.186;17.130;2023-07-31T06:51:32;22.28;60.08
70534;SHT31;58088;51.186;17.130;2023-07-31T06:53:59;22.38;59.93
70534;SHT31;58088;51.186;17.130;2023-07-31T06:56:25;22.47;59.62
70534;SHT31;58088;51.186;17.130;2023-07-31T06:58:52;22.58;59.59
70534;SHT31;58088;51.186;17.130;2023-07-31T07:01:18;22.65;59.28
70534;SHT31;58088;51.186;17.130;2023-07-31T07:03:44;22.68;59.08
70534;SHT31;58088;51.186;17.130;2023-07-31T07:06:16;22.71;59.35
70534;SHT31;58088;51.186;17.130;2023-07-31T07:08:43;22.70;59.09
70534;SHT31;58088;51.186;17.130;2023-07-31T07:11:10;22.71;59.07
70534;SHT31;58088;51.186;17.130;2023-07-31T07:13:36;22.74;58.97
70534;SHT31;58088;51.186;17.130;2023-07-31T07:16:02;22.79;58.82
70534;SHT31;58088;51.186;17.130;2023-07-31T07:18:28;22.77;58.41
70534;SHT31;58088;51.186;17.130;2023-07-31T07:20:54;22.74;58.20
70534;SHT31;58088;51.186;17.130;2023-07-31T07:23:23;22.75;58.24
70534;SHT31;58088;51.186;17.130;2023-07-31T07:25:50;22.74;58.04
70534;SHT31;58088;51.186;17.130;2023-07-31T07:28:17;22.75;57.83
70534;SHT31;58088;51.186;17.130;2023-07-31T07:30:43;22.76;57.71
70534;SHT31;58088;51.186;17.130;2023-07-31T07:33:09;22.84;58.23
70534;SHT31;58088;51.186;17.130;2023-07-31T07:35:35;22.92;58.09
70534;SHT31;58088;51.186;17.130;2023-07-31T07:38:02;23.03;57.70
70534;SHT31;58088;51.186;17.130;2023-07-31T07:40:29;23.17;57.43
70534;SHT31;58088;51.186;17.130;2023-07-31T07:42:56;23.30;57.03
70534;SHT31;58088;51.186;17.130;2023-07-31T07:45:22;23.44;56.92
70534;SHT31;58088;51.186;17.130;2023-07-31T07:47:48;23.59;56.38
70534;SHT31;58088;51.186;17.130;2023-07-31T07:50:17;23.84;56.10
70534;SHT31;58088;51.186;17.130;2023-07-31T07:52:43;24.14;55.79
70534;SHT31;58088;51.186;17.130;2023-07-31T07:55:09;24.40;55.12
70534;SHT31;58088;51.186;17.130;2023-07-31T07:57:36;24.63;54.42
70534;SHT31;58088;51.186;17.130;2023-07-31T08:00:02;24.93;54.26
70534;SHT31;58088;51.186;17.130;2023-07-31T08:02:47;25.34;53.72
70534;SHT31;58088;51.186;17.130;2023-07-31T08:05:13;25.73;52.77
70534;SHT31;58088;51.186;17.130;2023-07-31T08:07:39;25.92;51.49
70534;SHT31;58088;51.186;17.130;2023-07-31T08:10:06;26.04;51.18
70534;SHT31;58088;51.186;17.130;2023-07-31T08:12:32;26.08;50.37
70534;SHT31;58088;51.186;17.130;2023-07-31T08:14:58;26.11;50.37
70534;SHT31;58088;51.186;17.130;2023-07-31T08:17:25;26.08;49.54
70534;SHT31;58088;51.186;17.130;2023-07-31T08:19:51;26.13;50.08
70534;SHT31;58088;51.186;17.130;2023-07-31T08:22:17;26.24;49.63
70534;SHT31;58088;51.186;17.130;2023-07-31T08:24:44;26.38;49.02
70534;SHT31;58088;51.186;17.130;2023-07-31T08:27:10;26.53;48.85
70534;SHT31;58088;51.186;17.130;2023-07-31T08:29:36;26.67;47.82
70534;SHT31;58088;51.186;17.130;2023-07-31T08:32:03;26.72;48.34
70534;SHT31;58088;51.186;17.130;2023-07-31T08:34:29;26.78;48.11
70534;SHT31;58088;51.186;17.130;2023-07-31T08:36:55;26.79;48.18
70534;SHT31;58088;51.186;17.130;2023-07-31T08:39:21;26.77;47.79
70534;SHT31;58088;51.186;17.130;2023-07-31T08:41:47;26.80;47.33
70534;SHT31;58088;51.186;17.130;2023-07-31T08:44:14;26.82;47.64
70534;SHT31;58088;51.186;17.130;2023-07-31T08:46:42;26.86;48.00
70534;SHT31;58088;51.186;17.130;2023-07-31T08:49:09;26.86;48.39
70534;SHT31;58088;51.186;17.130;2023-07-31T08:51:36;26.91;49.03
70534;SHT31;58088;51.186;17.130;2023-07-31T08:54:03;26.79;47.90
70534;SHT31;58088;51.186;17.130;2023-07-31T08:56:32;26.67;47.79
70534;SHT31;58088;51.186;17.130;2023-07-31T08:59:02;26.37;47.61
70534;SHT31;58088;51.186;17.130;2023-07-31T09:01:30;26.13;48.31
70534;SHT31;58088;51.186;17.130;2023-07-31T09:04:04;25.94;48.87
70534;SHT31;58088;51.186;17.130;2023-07-31T09:06:31;25.87;49.60
70534;SHT31;58088;51.186;17.130;2023-07-31T09:08:59;25.80;50.13
70534;SHT31;58088;51.186;17.130;2023-07-31T09:11:26;25.69;50.62
70534;SHT31;58088;51.186;17.130;2023-07-31T09:13:53;25.56;50.82
70534;SHT31;58088;51.186;17.130;2023-07-31T09:16:32;25.48;51.52
70534;SHT31;58088;51.186;17.130;2023-07-31T09:18:58;25.41;52.02
70534;SHT31;58088;51.186;17.130;2023-07-31T09:21:27;25.32;52.39
70534;SHT31;58088;51.186;17.130;2023-07-31T09:23:54;25.25;52.93
70534;SHT31;58088;51.186;17.130;2023-07-31T09:26:33;25.21;52.62
70534;SHT31;58088;51.186;17.130;2023-07-31T09:29:06;25.21;54.02
70534;SHT31;58088;51.186;17.130;2023-07-31T09:31:44;25.22;54.02
70534;SHT31;58088;51.186;17.130;2023-07-31T09:34:11;25.16;53.39
70534;SHT31;58088;51.186;17.130;2023-07-31T09:36:40;25.07;53.11
70534;SHT31;58088;51.186;17.130;2023-07-31T09:39:18;24.89;52.27
70534;SHT31;58088;51.186;17.130;2023-07-31T09:41:47;24.70;52.68
70534;SHT31;58088;51.186;17.130;2023-07-31T09:44:20;24.53;52.70
70534;SHT31;58088;51.186;17.130;2023-07-31T09:46:48;24.42;52.31
70534;SHT31;58088;51.186;17.130;2023-07-31T09:49:15;24.24;51.51
70534;SHT31;58088;51.186;17.130;2023-07-31T09:51:42;24.07;52.01
70534;SHT31;58088;51.186;17.130;2023-07-31T09:54:09;23.97;51.99
70534;SHT31;58088;51.186;17.130;2023-07-31T09:56:41;23.84;51.52
70534;SHT31;58088;51.186;17.130;2023-07-31T09:59:11;23.75;52.06
70534;SHT31;58088;51.186;17.130;2023-07-31T10:01:40;23.68;51.99
70534;SHT31;58088;51.186;17.130;2023-07-31T10:04:08;23.60;51.84
70534;SHT31;58088;51.186;17.130;2023-07-31T10:06:37;23.60;52.13
70534;SHT31;58088;51.186;17.130;2023-07-31T10:09:08;23.64;52.32
70534;SHT31;58088;51.186;17.130;2023-07-31T10:11:46;23.70;52.28
70534;SHT31;58088;51.186;17.130;2023-07-31T10:14:21;23.76;52.56
70534;SHT31;58088;51.186;17.130;2023-07-31T10:16:50;23.82;52.95
70534;SHT31;58088;51.186;17.130;2023-07-31T10:19:18;23.86;52.65
70534;SHT31;58088;51.186;17.130;2023-07-31T10:21:48;23.85;53.04
70534;SHT31;58088;51.186;17.130;2023-07-31T10:24:15;23.81;52.90
70534;SHT31;58088;51.186;17.130;2023-07-31T10:26:43;23.70;53.21
70534;SHT31;58088;51.186;17.130;2023-07-31T10:29:15;23.60;53.46
70534;SHT31;58088;51.186;17.130;2023-07-31T10:31:43;23.55;54.07
70534;SHT31;58088;51.186;17.130;2023-07-31T10:34:11;23.52;53.20
70534;SHT31;58088;51.186;17.130;2023-07-31T10:36:39;23.47;53.01
70534;SHT31;58088;51.186;17.130;2023-07-31T10:39:05;23.42;53.00
70534;SHT31;58088;51.186;17.130;2023-07-31T10:42:13;23.38;53.06
70534;SHT31;58088;51.186;17.130;2023-07-31T10:44:46;23.41;52.56
70534;SHT31;58088;51.186;17.130;2023-07-31T10:47:14;23.43;52.57
70534;SHT31;58088;51.186;17.130;2023-07-31T10:49:44;23.41;53.22
70534;SHT31;58088;51.186;17.130;2023-07-31T10:52:12;23.46;53.26
70534;SHT31;58088;51.186;17.130;2023-07-31T10:54:39;23.57;53.35
70534;SHT31;58088;51.186;17.130;2023-07-31T10:57:21;23.65;53.10
70534;SHT31;58088;51.186;17.130;2023-07-31T10:59:48;23.65;52.75
70534;SHT31;58088;51.186;17.130;2023-07-31T11:02:25;23.62;52.65
70534;SHT31;58088;51.186;17.130;2023-07-31T11:05:10;23.64;52.69
70534;SHT31;58088;51.186;17.130;2023-07-31T11:07:50;23.78;52.89
70534;SHT31;58088;51.186;17.130;2023-07-31T11:10:17;23.91;53.18
70534;SHT31;58088;51.186;17.130;2023-07-31T11:12:45;23.99;52.66
70534;SHT31;58088;51.186;17.130;2023-07-31T11:15:12;24.01;52.31
70534;SHT31;58088;51.186;17.130;2023-07-31T11:17:39;23.99;52.29
70534;SHT31;58088;51.186;17.130;2023-07-31T11:20:06;23.96;52.08
70534;SHT31;58088;51.186;17.130;2023-07-31T11:22:36;23.94;52.62
70534;SHT31;58088;51.186;17.130;2023-07-31T11:25:03;23.91;52.58
70534;SHT31;58088;51.186;17.130;2023-07-31T11:27:30;23.96;52.75
70534;SHT31;58088;51.186;17.130;2023-07-31T11:30:00;24.05;52.97
70534;SHT31;58088;51.186;17.130;2023-07-31T11:32:27;24.09;52.31
70534;SHT31;58088;51.186;17.130;2023-07-31T11:34:53;24.07;51.55
70534;SHT31;58088;51.186;17.130;2023-07-31T11:37:21;24.12;51.54
70534;SHT31;58088;51.186;17.130;2023-07-31T11:40:00;24.22;51.11
70534;SHT31;58088;51.186;17.130;2023-07-31T11:42:27;24.39;51.24
70534;SHT31;58088;51.186;17.130;2023-07-31T11:44:53;24.52;50.98
70534;SHT31;58088;51.186;17.130;2023-07-31T11:47:20;24.62;50.75
70534;SHT31;58088;51.186;17.130;2023-07-31T11:49:46;24.73;50.39
70534;SHT31;58088;51.186;17.130;2023-07-31T11:52:14;24.80;50.23
70534;SHT31;58088;51.186;17.130;2023-07-31T11:54:41;24.94;50.70
70534;SHT31;58088;51.186;17.130;2023-07-31T11:57:08;24.99;49.80
70534;SHT31;58088;51.186;17.130;2023-07-31T11:59:34;25.04;49.86
70534;SHT31;58088;51.186;17.130;2023-07-31T12:02:04;25.15;50.60
70534;SHT31;58088;51.186;17.130;2023-07-31T12:04:30;25.32;49.99
70534;SHT31;58088;51.186;17.130;2023-07-31T12:06:57;25.41;49.26
70534;SHT31;58088;51.186;17.130;2023-07-31T12:09:26;25.52;49.44
70534;SHT31;58088;51.186;17.130;2023-07-31T12:11:52;25.68;49.43
70534;SHT31;58088;51.186;17.130;2023-07-31T12:14:19;25.75;48.29
70534;SHT31;58088;51.186;17.130;2023-07-31T12:16:59;25.85;48.68
70534;SHT31;58088;51.186;17.130;2023-07-31T12:19:29;25.92;48.12
70534;SHT31;58088;51.186;17.130;2023-07-31T12:21:56;25.95;48.29
70534;SHT31;58088;51.186;17.130;2023-07-31T12:24:28;25.90;47.60
70534;SHT31;58088;51.186;17.130;2023-07-31T12:26:54;25.91;47.88
70534;SHT31;58088;51.186;17.130;2023-07-31T12:29:21;25.92;48.21
70534;SHT31;58088;51.186;17.130;2023-07-31T12:31:47;25.90;47.83
70534;SHT31;58088;51.186;17.130;2023-07-31T12:34:17;25.81;47.43
70534;SHT31;58088;51.186;17.130;2023-07-31T12:36:46;25.72;47.67
70534;SHT31;58088;51.186;17.130;2023-07-31T12:39:16;25.70;48.18
70534;SHT31;58088;51.186;17.130;2023-07-31T12:41:42;25.73;48.25
70534;SHT31;58088;51.186;17.130;2023-07-31T12:44:08;25.74;47.79
70534;SHT31;58088;51.186;17.130;2023-07-31T12:46:35;25.76;47.53
70534;SHT31;58088;51.186;17.130;2023-07-31T12:49:02;25.79;47.66
70534;SHT31;58088;51.186;17.130;2023-07-31T12:51:28;25.81;47.24
70534;SHT31;58088;51.186;17.130;2023-07-31T12:53:54;25.78;47.08
70534;SHT31;58088;51.186;17.130;2023-07-31T12:56:20;25.84;47.71
70534;SHT31;58088;51.186;17.130;2023-07-31T12:58:47;25.91;47.89
70534;SHT31;58088;51.186;17.130;2023-07-31T13:01:13;25.93;47.60
70534;SHT31;58088;51.186;17.130;2023-07-31T13:03:39;25.94;47.67
70534;SHT31;58088;51.186;17.130;2023-07-31T13:06:06;25.95;47.43
70534;SHT31;58088;51.186;17.130;2023-07-31T13:08:32;25.90;47.32
70534;SHT31;58088;51.186;17.130;2023-07-31T13:10:58;25.85;47.25
70534;SHT31;58088;51.186;17.130;2023-07-31T13:13:25;25.85;47.25
70534;SHT31;58088;51.186;17.130;2023-07-31T13:15:51;25.84;47.64
70534;SHT31;58088;51.186;17.130;2023-07-31T13:18:17;25.85;47.57
70534;SHT31;58088;51.186;17.130;2023-07-31T13:20:44;25.89;47.50
70534;SHT31;58088;51.186;17.130;2023-07-31T13:23:10;25.91;47.52
70534;SHT31;58088;51.186;17.130;2023-07-31T13:25:36;25.91;47.28
70534;SHT31;58088;51.186;17.130;2023-07-31T13:28:02;25.86;47.31
70534;SHT31;58088;51.186;17.130;2023-07-31T13:30:29;25.90;47.59
70534;SHT31;58088;51.186;17.130;2023-07-31T13:32:55;26.02;47.80
70534;SHT31;58088;51.186;17.130;2023-07-31T13:35:21;26.16;47.49
70534;SHT31;58088;51.186;17.130;2023-07-31T13:37:47;26.26;47.69
70534;SHT31;58088;51.186;17.130;2023-07-31T13:40:13;26.33;47.45
70534;SHT31;58088;51.186;17.130;2023-07-31T13:42:40;26.35;47.33
70534;SHT31;58088;51.186;17.130;2023-07-31T13:45:06;26.34;47.19
70534;SHT31;58088;51.186;17.130;2023-07-31T13:47:33;26.31;47.47
70534;SHT31;58088;51.186;17.130;2023-07-31T13:49:59;26.29;47.43
70534;SHT31;58088;51.186;17.130;2023-07-31T13:52:26;26.28;47.21
70534;SHT31;58088;51.186;17.130;2023-07-31T13:54:52;26.29;47.33
70534;SHT31;58088;51.186;17.130;2023-07-31T13:57:18;26.31;47.24
70534;SHT31;58088;51.186;17.130;2023-07-31T13:59:44;26.27;47.20
70534;SHT31;58088;51.186;17.130;2023-07-31T14:02:11;26.25;47.19
70534;SHT31;58088;51.186;17.130;2023-07-31T14:04:37;26.28;47.37
70534;SHT31;58088;51.186;17.130;2023-07-31T14:07:03;26.28;47.08
70534;SHT31;58088;51.186;17.130;2023-07-31T14:09:30;26.21;46.95
70534;SHT31;58088;51.186;17.130;2023-07-31T14:11:56;26.10;46.52
70534;SHT31;58088;51.186;17.130;2023-07-31T14:14:22;26.06;46.90
70534;SHT31;58088;51.186;17.130;2023-07-31T14:16:49;26.08;47.02
70534;SHT31;58088;51.186;17.130;2023-07-31T14:19:15;26.11;47.17
70534;SHT31;58088;51.186;17.130;2023-07-31T14:21:41;26.08;47.01
70534;SHT31;58088;51.186;17.130;2023-07-31T14:24:07;26.07;47.12
70534;SHT31;58088;51.186;17.130;2023-07-31T14:26:34;26.04;46.79
70534;SHT31;58088;51.186;17.130;2023-07-31T14:29:00;26.04;46.88
70534;SHT31;58088;51.186;17.130;2023-07-31T14:31:26;26.05;46.68
70534;SHT31;58088;51.186;17.130;2023-07-31T14:33:52;26.07;46.77
70534;SHT31;58088;51.186;17.130;2023-07-31T14:36:19;26.09;46.85
70534;SHT31;58088;51.186;17.130;2023-07-31T14:38:45;26.12;46.54
70534;SHT31;58088;51.186;17.130;2023-07-31T14:41:11;26.13;46.72
70534;SHT31;58088;51.186;17.130;2023-07-31T14:43:38;26.15;46.71
70534;SHT31;58088;51.186;17.130;2023-07-31T14:46:04;26.17;46.81
70534;SHT31;58088;51.186;17.130;2023-07-31T14:48:31;26.21;46.74
70534;SHT31;58088;51.186;17.130;2023-07-31T14:50:57;26.24;47.02
70534;SHT31;58088;51.186;17.130;2023-07-31T14:53:23;26.30;46.73
70534;SHT31;58088;51.186;17.130;2023-07-31T14:55:49;26.27;46.31
70534;SHT31;58088;51.186;17.130;2023-07-31T14:58:16;26.26;46.48
70534;SHT31;58088;51.186;17.130;2023-07-31T15:00:43;26.22;46.35
70534;SHT31;58088;51.186;17.130;2023-07-31T15:03:10;26.22;46.73
70534;SHT31;58088;51.186;17.130;2023-07-31T15:05:36;26.19;46.60
70534;SHT31;58088;51.186;17.130;2023-07-31T15:08:02;26.13;46.26
70534;SHT31;58088;51.186;17.130;2023-07-31T15:10:29;26.06;46.63
70534;SHT31;58088;51.186;17.130;2023-07-31T15:12:55;26.09;47.06
70534;SHT31;58088;51.186;17.130;2023-07-31T15:15:22;26.14;46.63
70534;SHT31;58088;51.186;17.130;2023-07-31T15:17:49;26.17;46.25
70534;SHT31;58088;51.186;17.130;2023-07-31T15:20:15;26.19;46.45
70534;SHT31;58088;51.186;17.130;2023-07-31T15:22:41;26.19;46.37
70534;SHT31;58088;51.186;17.130;2023-07-31T15:25:08;26.18;46.19
70534;SHT31;58088;51.186;17.130;2023-07-31T15:27:34;26.16;46.39